Willet, South Dakota
Current Conditions -  °F | °C
As of 1:15 AM on Thursday 27 Nov 2014 (Local Time) from KSPF Reporting Station
Haze Haze  
Wind Chill: 23°   Ceiling: 200
Heat Index: 23°   Visibility: 2.5mi
Dew Point: 21°   Wind: 0mph
Humidity: 93%   Direction: NA
Pressure: 30.17"   Gusts: NA
Location:  44.9293°N, 103.753°W
Report Text: KSPF 270815Z AUTO 00000KT 2 1/2SM BR OVC002 M05/M06 A3017 RMK AO2
Loading
Personal Weather Stations






























Interactive Weather Map New forecast layout! Learn more

10-Day Weather Forecast

Advertisements
Track Severe Weather on mobile